Terminal Aerodrome Forecast
Issued by NWS

Home | Current Version | Previous Version | Text Only | Print | Product List | Glossary Off
Versions: 1 2 3 4 5 6 7 8 9 10 11 12 13 14 15

000
FTUS42 KMHX 281700
TAFPGV
TAF
KPGV 281720Z 2818/2918 27010G18KT P6SM SCT040 SCT250
     FM290100 35005KT P6SM BKN250
     FM291300 03008KT P6SM SKC
      AMD LTD TO CLD VIS AND WIND=

USA.gov is the U.S. government's official web portal to all federal, state and local government web resources and services.